Time;durP1;ratioP1;P1;durP2;ratioP2;P2;SDS_P1;SDS_P2;PMS_P1;PMS_P2;Temp;Humidity;BMP_temperature;BMP_pressure;BME280_temperature;BME280_humidity;BME280_pressure;Samples;Min_cycle;Max_cycle;Signal;HPM_P1;HPM_P2
2022/05/03 00:02:03;;;;;;;11.10;9.20;;;;;;100317.68;;;;107249;1274;65796;-33
2022/05/03 00:05:02;;;;;;;10.70;9.30;;;;;;100315.90;;;;107273;1274;68183;-33
2022/05/03 00:07:56;;;;;;;11.00;9.30;;;;;;100311.89;;;;107201;1274;65593;-28
2022/05/03 00:11:02;;;;;;;9.60;8.60;;;;;;100306.79;;;;107240;1274;65605;-28
2022/05/03 00:13:44;;;;;;;10.50;9.30;;;;;;100309.48;;;;107237;1274;65703;-33
2022/05/03 00:16:14;;;;;;;10.50;9.40;;;;;;100311.48;;;;107237;1274;65658;-32
2022/05/03 00:18:44;;;;;;;10.30;9.30;;;;;;100320.00;;;;107265;1274;68482;-33
2022/05/03 00:21:12;;;;;;;9.80;8.30;;;;;;100312.66;;;;107209;1274;66782;-32
2022/05/03 00:23:47;;;;;;;10.60;8.80;;;;;;100311.84;;;;107284;1274;65690;-33
2022/05/03 00:26:15;;;;;;;10.20;9.20;;;;;;100308.81;;;;107249;1274;65548;-32
2022/05/03 00:28:45;;;;;;;10.70;9.50;;;;;;100304.53;;;;107281;1274;65614;-32
2022/05/03 00:31:16;;;;;;;10.60;9.50;;;;;;100308.49;;;;107270;1274;67277;-33
2022/05/03 00:33:46;;;;;;;10.70;8.70;;;;;;100305.86;;;;107231;1274;65717;-28
2022/05/03 00:36:13;;;;;;;10.30;9.10;;;;;;100317.17;;;;107229;1274;65636;-27
2022/05/03 00:38:43;;;;;;;10.90;9.40;;;;;;100323.29;;;;107168;1274;65704;-28
2022/05/03 00:41:36;;;;;;;10.70;9.10;;;;;;100321.49;;;;107256;1274;65687;-27
2022/05/03 00:44:58;;;;;;;10.10;9.10;;;;;;100320.04;;;;107242;1273;68556;-28
2022/05/03 00:48:11;;;;;;;11.20;10.00;;;;;;100318.27;;;;107266;1273;65524;-28
2022/05/03 00:51:04;;;;;;;12.10;10.80;;;;;;100317.30;;;;107252;1274;65671;-27
2022/05/03 00:53:39;;;;;;;12.40;11.00;;;;;;100313.22;;;;107236;1274;65568;-33
2022/05/03 00:56:43;;;;;;;13.10;11.70;;;;;;100313.20;;;;107266;1274;65579;-33
2022/05/03 00:59:45;;;;;;;12.80;11.40;;;;;;100313.20;;;;107259;1274;67195;-33
2022/05/03 01:02:14;;;;;;;13.90;12.60;;;;;;100308.92;;;;107234;1271;65857;-32
2022/05/03 01:05:10;;;;;;;14.20;12.80;;;;;;100304.40;;;;107210;1274;65820;-33
2022/05/03 01:08:05;;;;;;;14.30;13.00;;;;;;100304.52;;;;107253;1273;66092;-33
2022/05/03 01:10:47;;;;;;;14.20;12.70;;;;;;100303.77;;;;107286;1272;65694;-33
2022/05/03 01:13:33;;;;;;;15.20;13.60;;;;;;100299.52;;;;107280;1274;68461;-32
2022/05/03 01:16:35;;;;;;;15.60;14.00;;;;;;100298.61;;;;107251;1273;65547;-33
2022/05/03 01:19:34;;;;;;;15.90;14.30;;;;;;100301.22;;;;107278;1274;65563;-33
2022/05/03 01:22:37;;;;;;;16.00;14.10;;;;;;100299.08;;;;107270;1274;65564;-27
2022/05/03 01:25:08;;;;;;;16.20;14.60;;;;;;100298.77;;;;107267;1272;65732;-28
2022/05/03 01:28:03;;;;;;;16.00;14.40;;;;;;100299.35;;;;107211;1272;68514;-33
2022/05/03 01:30:31;;;;;;;16.20;14.40;;;;;;100300.29;;;;107248;1274;65598;-33
2022/05/03 01:33:09;;;;;;;15.80;14.10;;;;;;100302.80;;;;107252;1274;65665;-28
2022/05/03 01:35:39;;;;;;;17.30;14.90;;;;;;100302.27;;;;107218;1274;66136;-27
2022/05/03 01:38:20;;;;;;;15.40;13.80;;;;;;100304.55;;;;107269;1274;65679;-33
2022/05/03 01:41:34;;;;;;;16.20;14.50;;;;;;100305.08;;;;107258;1274;66934;-33
2022/05/03 01:44:40;;;;;;;17.60;15.70;;;;;;100307.45;;;;107266;1274;65557;-32
2022/05/03 01:47:32;;;;;;;16.90;14.80;;;;;;100309.59;;;;107223;1274;65658;-33
2022/05/03 01:50:21;;;;;;;16.00;14.40;;;;;;100312.05;;;;107235;1274;65649;-33
2022/05/03 01:53:23;;;;;;;16.60;14.80;;;;;;100312.55;;;;107299;1274;65686;-33
2022/05/03 01:56:21;;;;;;;16.90;14.90;;;;;;100311.73;;;;107046;1274;67969;-33
2022/05/03 01:59:30;;;;;;;18.40;16.50;;;;;;100306.39;;;;107251;1273;65715;-33
2022/05/03 02:02:25;;;;;;;17.30;15.60;;;;;;100304.34;;;;107242;1274;65633;-28
2022/05/03 02:05:35;;;;;;;16.60;14.80;;;;;;100309.00;;;;107226;1274;65729;-28
2022/05/03 02:08:10;;;;;;;17.00;15.30;;;;;;100306.20;;;;107219;1274;65665;-28
2022/05/03 02:11:00;;;;;;;16.40;14.70;;;;;;100308.55;;;;107277;1273;67260;-27
2022/05/03 02:16:49;;;;;;;16.10;14.40;;;;;;100309.83;;;;107266;1274;65815;-28
2022/05/03 02:19:41;;;;;;;16.40;14.70;;;;;;100310.80;;;;107264;1274;65557;-34
2022/05/03 02:22:14;;;;;;;16.20;14.60;;;;;;100316.11;;;;107286;1274;65410;-28
2022/05/03 02:25:00;;;;;;;16.00;14.40;;;;;;100316.63;;;;107235;1274;67152;-27
2022/05/03 02:27:31;;;;;;;16.70;14.80;;;;;;100313.67;;;;107250;1274;65551;-28
2022/05/03 02:30:01;;;;;;;16.40;14.70;;;;;;100313.92;;;;107253;1274;66736;-28
2022/05/03 02:32:52;;;;;;;16.00;14.30;;;;;;100312.13;;;;107225;1274;65583;-33
2022/05/03 02:35:21;;;;;;;15.30;13.80;;;;;;100312.08;;;;107267;1274;65636;-33
2022/05/03 02:37:56;;;;;;;15.00;13.50;;;;;;100312.31;;;;107274;1274;66785;-27
2022/05/03 02:40:30;;;;;;;15.20;13.70;;;;;;100309.88;;;;107255;1274;65570;-27
2022/05/03 02:43:00;;;;;;;15.20;13.80;;;;;;100309.42;;;;107257;1274;65648;-28
2022/05/03 02:45:29;;;;;;;14.90;13.50;;;;;;100308.09;;;;107242;1274;65711;-28
2022/05/03 02:48:26;;;;;;;14.60;13.10;;;;;;100310.02;;;;107277;1274;65647;-33
2022/05/03 02:51:04;;;;;;;14.20;12.70;;;;;;100309.79;;;;107257;1274;66938;-33
2022/05/03 02:53:47;;;;;;;15.60;14.00;;;;;;100313.74;;;;107256;1273;65643;-33
2022/05/03 02:56:32;;;;;;;14.90;13.40;;;;;;100310.29;;;;107248;1274;65541;-33
2022/05/03 02:59:14;;;;;;;15.10;13.60;;;;;;100312.79;;;;107276;1274;65598;-28
2022/05/03 03:01:56;;;;;;;13.20;11.90;;;;;;100314.54;;;;107297;1273;65579;-27
2022/05/03 03:04:48;;;;;;;14.20;12.70;;;;;;100312.60;;;;107230;1274;68552;-33
2022/05/03 03:07:19;;;;;;;13.80;12.20;;;;;;100314.38;;;;107232;1272;65788;-33
2022/05/03 03:10:12;;;;;;;13.80;12.40;;;;;;100312.45;;;;107275;1273;65545;-33
2022/05/03 03:13:15;;;;;;;14.40;12.60;;;;;;100314.38;;;;107241;1274;65650;-33
2022/05/03 03:15:42;;;;;;;14.10;12.70;;;;;;100313.47;;;;107274;1274;65586;-33
2022/05/03 03:18:14;;;;;;;13.60;12.10;;;;;;100311.52;;;;107278;1274;66812;-28
2022/05/03 03:20:47;;;;;;;13.90;12.50;;;;;;100314.81;;;;107272;1273;65557;-30
2022/05/03 03:23:24;;;;;;;15.60;12.60;;;;;;100316.52;;;;107247;1274;65607;-33
2022/05/03 03:25:55;;;;;;;14.20;11.90;;;;;;100316.13;;;;107246;1274;65787;-41
2022/05/03 03:28:29;;;;;;;13.80;12.40;;;;;;100321.83;;;;107275;1274;65552;-34
2022/05/03 03:30:58;;;;;;;14.00;12.10;;;;;;100319.64;;;;107283;1274;68209;-35
2022/05/03 03:33:25;;;;;;;13.00;11.70;;;;;;100320.67;;;;107207;1274;65595;-33
2022/05/03 03:35:53;;;;;;;13.20;11.90;;;;;;100323.83;;;;107246;1274;65685;-33
2022/05/03 03:38:32;;;;;;;12.30;11.10;;;;;;100331.12;;;;107256;1274;65569;-31
2022/05/03 03:40:59;;;;;;;13.60;11.40;;;;;;100330.77;;;;107254;1273;65560;-32
2022/05/03 03:43:30;;;;;;;13.00;11.70;;;;;;100331.40;;;;107251;1274;67340;-27
2022/05/03 03:46:01;;;;;;;12.50;11.20;;;;;;100332.71;;;;107232;1274;65771;-27
2022/05/03 03:48:32;;;;;;;12.70;11.20;;;;;;100333.91;;;;107237;1274;65783;-34
2022/05/03 03:51:04;;;;;;;12.60;11.20;;;;;;100335.98;;;;107266;1274;65803;-34
2022/05/03 03:53:35;;;;;;;12.70;11.40;;;;;;100335.13;;;;107257;1274;65651;-34
2022/05/03 03:56:05;;;;;;;12.00;10.60;;;;;;100333.33;;;;107260;1274;66695;-33
2022/05/03 03:58:33;;;;;;;13.40;11.30;;;;;;100332.19;;;;107258;1274;65685;-36
2022/05/03 04:01:01;;;;;;;12.50;10.70;;;;;;100334.03;;;;107277;1274;65679;-28
2022/05/03 04:03:29;;;;;;;11.90;10.60;;;;;;100335.18;;;;107209;1274;65589;-33
2022/05/03 04:05:59;;;;;;;12.90;11.50;;;;;;100334.29;;;;107258;1274;65575;-33
2022/05/03 04:08:27;;;;;;;12.70;11.40;;;;;;100336.88;;;;107283;1274;65733;-28
2022/05/03 04:10:57;;;;;;;11.10;9.90;;;;;;100339.48;;;;107272;1274;65561;-28
2022/05/03 04:13:24;;;;;;;12.90;10.60;;;;;;100339.65;;;;107232;1274;65719;-34
2022/05/03 04:15:55;;;;;;;12.00;10.50;;;;;;100342.56;;;;104989;1274;3041922;-33
2022/05/03 04:18:22;;;;;;;12.80;10.70;;;;;;100341.38;;;;107306;1274;65571;-33
2022/05/03 04:20:50;;;;;;;11.20;9.90;;;;;;100349.11;;;;107270;1274;65569;-33
2022/05/03 04:23:22;;;;;;;12.20;10.50;;;;;;100351.23;;;;107239;1274;65573;-31
2022/05/03 04:25:50;;;;;;;10.90;9.70;;;;;;100352.94;;;;107310;1273;65759;-28
2022/05/03 04:28:21;;;;;;;11.10;9.90;;;;;;100351.08;;;;107205;1274;65663;-27
2022/05/03 04:30:48;;;;;;;10.70;9.60;;;;;;100352.43;;;;107247;1274;65687;-27
2022/05/03 04:33:18;;;;;;;10.60;9.50;;;;;;100351.83;;;;107237;1274;67271;-27
2022/05/03 04:35:45;;;;;;;10.50;9.30;;;;;;100352.59;;;;107233;1274;65701;-28
2022/05/03 04:38:15;;;;;;;10.50;9.30;;;;;;100358.24;;;;107268;1273;65679;-34
2022/05/03 04:40:43;;;;;;;10.60;9.50;;;;;;100360.17;;;;107230;1274;65710;-32
2022/05/03 04:43:11;;;;;;;10.20;9.00;;;;;;100363.61;;;;107286;1274;65582;-33
2022/05/03 04:45:38;;;;;;;10.40;9.40;;;;;;100361.55;;;;107286;1274;66967;-32
2022/05/03 04:48:09;;;;;;;9.90;8.60;;;;;;100362.69;;;;107243;1274;65559;-28
2022/05/03 04:50:36;;;;;;;10.70;9.20;;;;;;100364.31;;;;107259;1274;66130;-27
2022/05/03 04:53:03;;;;;;;9.10;8.10;;;;;;100364.96;;;;107240;1274;65741;-27
2022/05/03 04:55:38;;;;;;;10.80;8.60;;;;;;100364.48;;;;107262;1274;65615;-28
2022/05/03 04:58:06;;;;;;;10.00;8.10;;;;;;100365.67;;;;107253;1274;66782;-33
2022/05/03 05:00:36;;;;;;;9.70;8.00;;;;;;100368.32;;;;107247;1271;65644;-33
2022/05/03 05:03:04;;;;;;;9.40;8.10;;;;;;100372.02;;;;107250;1271;65516;-33
2022/05/03 05:05:31;;;;;;;8.90;7.90;;;;;;100376.91;;;;107243;1274;65562;-32
2022/05/03 05:08:06;;;;;;;9.00;7.60;;;;;;100373.55;;;;107244;1274;65694;-27
2022/05/03 05:10:36;;;;;;;9.00;7.00;;;;;;100375.26;;;;107272;1274;65587;-27
2022/05/03 05:13:03;;;;;;;8.30;7.10;;;;;;100374.87;;;;107263;1274;65435;-33
2022/05/03 05:15:30;;;;;;;9.60;7.80;;;;;;100373.04;;;;107246;1274;65675;-35
2022/05/03 05:17:58;;;;;;;8.30;7.10;;;;;;100373.98;;;;107240;1274;65649;-33
2022/05/03 05:20:28;;;;;;;9.00;7.20;;;;;;100375.67;;;;107282;1273;65879;-33
2022/05/03 05:22:56;;;;;;;8.30;6.60;;;;;;100374.01;;;;107278;1274;68491;-33
2022/05/03 05:25:26;;;;;;;8.00;6.80;;;;;;100377.45;;;;107250;1273;66705;-33
2022/05/03 05:27:53;;;;;;;8.30;6.80;;;;;;100376.29;;;;107209;1274;65594;-31
2022/05/03 05:30:23;;;;;;;9.50;6.80;;;;;;100375.64;;;;107235;1274;65895;-33
2022/05/03 05:32:50;;;;;;;8.00;6.30;;;;;;100377.30;;;;107272;1273;63009;-33
2022/05/03 05:35:17;;;;;;;8.50;6.50;;;;;;100378.92;;;;107278;1274;66951;-33
2022/05/03 05:37:47;;;;;;;8.30;6.60;;;;;;100377.65;;;;107259;1274;65543;-34
2022/05/03 05:40:14;;;;;;;8.60;7.10;;;;;;100376.80;;;;107261;1274;65749;-33
2022/05/03 05:42:42;;;;;;;7.70;6.20;;;;;;100378.77;;;;107243;1273;65676;-27
2022/05/03 05:45:12;;;;;;;7.40;6.10;;;;;;100376.21;;;;107260;1274;65788;-26
2022/05/03 05:47:40;;;;;;;7.70;6.10;;;;;;100376.39;;;;107260;1274;66971;-32
2022/05/03 05:50:10;;;;;;;7.80;6.10;;;;;;100377.34;;;;107214;1274;65809;-33
2022/05/03 05:55:26;;;;;;;7.10;5.90;;;;;;100374.57;;;;107238;1274;65806;-27
2022/05/03 05:57:57;;;;;;;7.90;5.90;;;;;;100378.45;;;;107278;1273;65703;-28
2022/05/03 06:00:27;;;;;;;6.80;5.40;;;;;;100379.40;;;;107258;1274;65900;-28
2022/05/03 06:02:58;;;;;;;7.90;5.40;;;;;;100380.89;;;;107248;1274;65556;-28
2022/05/03 06:05:26;;;;;;;7.60;5.60;;;;;;100380.26;;;;107264;1272;65770;-27
2022/05/03 06:07:57;;;;;;;6.80;4.70;;;;;;100383.86;;;;107245;1274;65707;-27
2022/05/03 06:10:24;;;;;;;6.90;5.20;;;;;;100382.61;;;;107253;1274;65685;-27
2022/05/03 06:12:53;;;;;;;6.60;4.90;;;;;;100382.38;;;;107258;1274;66069;-33
2022/05/03 06:15:22;;;;;;;6.70;4.60;;;;;;100383.66;;;;107223;1274;65585;-33
2022/05/03 06:17:53;;;;;;;6.30;4.70;;;;;;100386.36;;;;107220;1274;65659;-27
2022/05/03 06:20:23;;;;;;;6.60;4.60;;;;;;100383.84;;;;107262;1274;65575;-28
2022/05/03 06:22:54;;;;;;;7.60;5.30;;;;;;100384.81;;;;107259;1274;65677;-34
2022/05/03 06:25:23;;;;;;;7.70;5.20;;;;;;100381.89;;;;107258;1274;65731;-34
2022/05/03 06:27:53;;;;;;;6.10;4.40;;;;;;100384.91;;;;107221;1274;65583;-28
2022/05/03 06:30:20;;;;;;;6.70;4.40;;;;;;100382.63;;;;107294;1274;65522;-28
2022/05/03 06:32:50;;;;;;;7.90;4.70;;;;;;100387.79;;;;107253;1274;65693;-32
2022/05/03 06:35:18;;;;;;;6.70;4.20;;;;;;100391.20;;;;107273;1274;65688;-33
2022/05/03 06:37:49;;;;;;;6.50;4.00;;;;;;100385.26;;;;107268;1274;65729;-29
2022/05/03 06:40:19;;;;;;;7.20;3.60;;;;;;100388.48;;;;107236;1273;65707;-28
2022/05/03 06:42:46;;;;;;;5.60;3.40;;;;;;100388.56;;;;107271;1274;65694;-33
2022/05/03 06:45:17;;;;;;;5.40;3.40;;;;;;100392.68;;;;107226;1274;65763;-33
2022/05/03 06:47:47;;;;;;;5.40;3.30;;;;;;100389.63;;;;107276;1274;65797;-33
2022/05/03 06:50:15;;;;;;;5.40;3.50;;;;;;100394.01;;;;107260;1274;67041;-33
2022/05/03 06:52:43;;;;;;;5.40;3.30;;;;;;100398.20;;;;107263;1274;65547;-34
2022/05/03 06:55:11;;;;;;;4.60;2.90;;;;;;100397.94;;;;107250;1274;65570;-33
2022/05/03 06:57:41;;;;;;;4.90;3.20;;;;;;100395.70;;;;107254;1274;65710;-33
2022/05/03 07:00:10;;;;;;;6.00;3.10;;;;;;100398.71;;;;107249;1274;65592;-33
2022/05/03 07:02:44;;;;;;;4.40;2.60;;;;;;100401.02;;;;107277;1274;66137;-33
2022/05/03 07:05:15;;;;;;;5.50;3.20;;;;;;100398.67;;;;107245;1274;65710;-33
2022/05/03 07:07:46;;;;;;;6.40;3.30;;;;;;100399.61;;;;107262;1274;65654;-33
2022/05/03 07:10:13;;;;;;;4.70;2.90;;;;;;100403.56;;;;107260;1274;65580;-33
2022/05/03 07:12:45;;;;;;;5.70;2.90;;;;;;100403.83;;;;107239;1274;65777;-27
2022/05/03 07:15:12;;;;;;;5.30;3.30;;;;;;100406.34;;;;107241;1274;67009;-28
2022/05/03 07:23:20;;;;;;;4.60;2.90;;;;;;100404.76;;;;107254;1273;65537;-28
2022/05/03 07:25:50;;;;;;;4.50;2.80;;;;;;100406.66;;;;107256;1273;65789;-27
2022/05/03 07:28:20;;;;;;;5.60;2.90;;;;;;100408.14;;;;107276;1274;67247;-32
2022/05/03 07:30:50;;;;;;;6.00;2.80;;;;;;100408.84;;;;107250;1272;65630;-33
2022/05/03 07:33:17;;;;;;;5.10;2.80;;;;;;100411.98;;;;107254;1274;65662;-32
2022/05/03 07:35:44;;;;;;;6.50;2.50;;;;;;100411.26;;;;107230;1274;65790;-33
2022/05/03 07:38:14;;;;;;;4.80;2.70;;;;;;100412.11;;;;107263;1274;65559;-35
2022/05/03 07:40:44;;;;;;;5.60;2.60;;;;;;100417.30;;;;107277;1274;66833;-33
2022/05/03 07:43:14;;;;;;;5.10;2.70;;;;;;100416.87;;;;107278;1274;65691;-32
2022/05/03 07:45:41;;;;;;;4.60;2.70;;;;;;100417.48;;;;107215;1274;65802;-33
2022/05/03 07:48:09;;;;;;;4.70;2.30;;;;;;100419.67;;;;107153;1274;66430;-34
2022/05/03 07:50:36;;;;;;;5.40;2.40;;;;;;100423.66;;;;107261;1274;65559;-33
2022/05/03 07:53:07;;;;;;;4.40;2.20;;;;;;100418.52;;;;107227;1274;67309;-33
2022/05/03 07:55:34;;;;;;;3.90;2.40;;;;;;100423.95;;;;107256;1274;66413;-33
2022/05/03 07:58:05;;;;;;;4.20;2.60;;;;;;100421.27;;;;107244;1274;65665;-33
2022/05/03 08:00:32;;;;;;;5.30;2.50;;;;;;100425.23;;;;107222;1274;65573;-31
2022/05/03 08:03:02;;;;;;;4.30;2.10;;;;;;100426.20;;;;107268;1274;65566;-33
2022/05/03 08:05:33;;;;;;;4.20;2.20;;;;;;100424.39;;;;107249;1274;67005;-34
2022/05/03 08:08:03;;;;;;;4.40;2.50;;;;;;100422.98;;;;107231;1274;65636;-27
2022/05/03 08:10:30;;;;;;;4.20;2.20;;;;;;100423.05;;;;107227;1274;65705;-27
2022/05/03 08:12:57;;;;;;;4.20;2.20;;;;;;100426.95;;;;107242;1274;65585;-28
2022/05/03 08:15:25;;;;;;;4.30;2.10;;;;;;100425.84;;;;107253;1274;66284;-27
2022/05/03 08:17:52;;;;;;;5.70;2.50;;;;;;100425.27;;;;107257;1274;66994;-33
2022/05/03 08:20:19;;;;;;;4.50;2.20;;;;;;100424.50;;;;107251;1274;65588;-33
2022/05/03 08:22:47;;;;;;;4.90;2.10;;;;;;100429.96;;;;107225;1274;65745;-32
2022/05/03 08:25:16;;;;;;;5.40;2.30;;;;;;100426.63;;;;107233;1274;65579;-33
2022/05/03 08:27:44;;;;;;;5.80;3.00;;;;;;100428.43;;;;107258;1274;65414;-32
2022/05/03 08:30:12;;;;;;;5.70;2.60;;;;;;100428.95;;;;107221;1274;66425;-33
2022/05/03 08:32:43;;;;;;;4.80;2.70;;;;;;100433.60;;;;107239;1274;65677;-33
2022/05/03 08:35:10;;;;;;;5.50;3.40;;;;;;100432.41;;;;107169;1274;65691;-36
2022/05/03 08:43:16;;;;;;;4.40;2.30;;;;;;100435.85;;;;107250;1274;66709;-33
2022/05/03 08:45:50;;;;;;;5.80;2.10;;;;;;100431.52;;;;107243;1274;65553;-33
2022/05/03 08:48:27;;;;;;;5.40;2.40;;;;;;100433.87;;;;107248;1274;65722;-29
2022/05/03 08:50:55;;;;;;;4.20;2.30;;;;;;100429.80;;;;107214;1274;65570;-28
2022/05/03 08:53:25;;;;;;;5.60;2.70;;;;;;100427.87;;;;107284;1274;65596;-33
2022/05/03 08:55:53;;;;;;;5.10;2.50;;;;;;100423.58;;;;107249;1274;66087;-33
2022/05/03 08:58:22;;;;;;;5.20;3.00;;;;;;100418.98;;;;107269;1274;65668;-33
2022/05/03 09:00:52;;;;;;;7.70;3.20;;;;;;100418.05;;;;107250;1274;65609;-34
2022/05/03 09:03:24;;;;;;;5.10;3.40;;;;;;100421.76;;;;107232;1274;65668;-33
2022/05/03 09:05:54;;;;;;;5.60;3.30;;;;;;100422.17;;;;107240;1274;65672;-33
2022/05/03 09:08:25;;;;;;;5.90;2.90;;;;;;100423.10;;;;107235;1274;67697;-25
2022/05/03 09:10:55;;;;;;;5.40;3.40;;;;;;100418.84;;;;107244;1274;65577;-28
2022/05/03 09:13:25;;;;;;;5.10;2.80;;;;;;100415.89;;;;107249;1274;65563;-28
2022/05/03 09:16:08;;;;;;;6.10;3.40;;;;;;100419.42;;;;107259;1272;65562;-28
2022/05/03 09:18:40;;;;;;;4.50;2.50;;;;;;100416.49;;;;107296;1274;65570;-34
2022/05/03 09:24:14;;;;;;;5.80;2.80;;;;;;100411.23;;;;107244;1274;65648;-33
2022/05/03 09:26:47;;;;;;;5.20;2.50;;;;;;100406.45;;;;107232;1274;65586;-33
2022/05/03 09:29:14;;;;;;;4.90;2.40;;;;;;100403.74;;;;107217;1274;65707;-28
2022/05/03 09:31:50;;;;;;;6.20;2.60;;;;;;100409.73;;;;107261;1274;65684;-28
2022/05/03 09:34:23;;;;;;;5.90;2.60;;;;;;100405.63;;;;107268;1274;66892;-33
2022/05/03 09:36:59;;;;;;;6.00;2.50;;;;;;100409.81;;;;107278;1273;65574;-28
2022/05/03 09:39:37;;;;;;;4.00;2.20;;;;;;100408.61;;;;107244;1274;65617;-28
2022/05/03 09:42:14;;;;;;;4.70;2.20;;;;;;100406.79;;;;107275;1273;65585;-33
2022/05/03 09:44:53;;;;;;;4.60;2.20;;;;;;100410.23;;;;107246;1274;65585;-34
2022/05/03 09:47:26;;;;;;;4.00;2.10;;;;;;100405.77;;;;107229;1274;67305;-32
2022/05/03 09:49:57;;;;;;;;;;;;;;100402.70;;;;107275;1274;65549;-34
2022/05/03 09:52:36;;;;;;;5.90;2.00;;;;;;100402.64;;;;107231;1274;65659;-28
2022/05/03 09:55:07;;;;;;;3.90;2.10;;;;;;100395.74;;;;107251;1274;65648;-27
2022/05/03 09:57:39;;;;;;;4.30;2.10;;;;;;100396.90;;;;107265;1274;65685;-28
2022/05/03 10:00:09;;;;;;;4.70;2.30;;;;;;100390.48;;;;107271;1274;68180;-25
2022/05/03 10:02:42;;;;;;;5.30;1.80;;;;;;100388.31;;;;107219;1274;65692;-33
2022/05/03 10:05:12;;;;;;;3.60;1.90;;;;;;100395.13;;;;107235;1274;65562;-33
2022/05/03 10:07:46;;;;;;;4.30;2.20;;;;;;100398.17;;;;107251;1274;66866;-33
2022/05/03 10:10:16;;;;;;;3.40;1.70;;;;;;100401.01;;;;107254;1274;65679;-33
2022/05/03 10:12:49;;;;;;;5.00;1.80;;;;;;100400.84;;;;107262;1274;67438;-27
2022/05/03 10:21:34;;;;;;;4.30;1.60;;;;;;100394.30;;;;107226;1274;65848;-28
2022/05/03 10:24:12;;;;;;;4.50;1.80;;;;;;100397.56;;;;107235;1274;67036;-34
2022/05/03 10:26:52;;;;;;;4.20;2.00;;;;;;100399.20;;;;107235;1274;67246;-35
2022/05/03 10:29:27;;;;;;;5.60;2.10;;;;;;100392.51;;;;107165;1274;65558;-27
2022/05/03 10:32:14;;;;;;;4.30;1.70;;;;;;100391.67;;;;107098;1275;65755;-34
2022/05/03 10:34:53;;;;;;;3.80;1.70;;;;;;100388.73;;;;107236;1274;65732;-33
2022/05/03 10:37:33;;;;;;;5.80;1.70;;;;;;100393.23;;;;107131;1274;65575;-33
2022/05/03 10:40:12;;;;;;;5.00;1.70;;;;;;100400.34;;;;107244;1274;67999;-33
2022/05/03 10:42:41;;;;;;;4.30;1.80;;;;;;100401.30;;;;107263;1274;65673;-34
2022/05/03 10:45:14;;;;;;;5.90;1.80;;;;;;100396.73;;;;107146;1274;65686;-34
2022/05/03 10:48:23;;;;;;;5.50;1.60;;;;;;100391.48;;;;107230;1274;65548;-34
2022/05/03 10:51:02;;;;;;;4.20;1.70;;;;;;100388.52;;;;107245;1274;65580;-33
2022/05/03 10:53:35;;;;;;;4.30;1.40;;;;;;100395.60;;;;107244;1274;67883;-33
2022/05/03 10:56:21;;;;;;;4.80;1.70;;;;;;100393.11;;;;107252;1272;65755;-33
2022/05/03 10:59:10;;;;;;;5.90;1.70;;;;;;100389.66;;;;107270;1274;65662;-25
2022/05/03 11:01:56;;;;;;;4.20;2.10;;;;;;100391.25;;;;107242;1273;65573;-28
2022/05/03 11:04:26;;;;;;;3.40;1.50;;;;;;100393.91;;;;107280;1274;65589;-27
2022/05/03 11:06:57;;;;;;;2.90;1.60;;;;;;100392.69;;;;107227;1274;68326;-28
2022/05/03 11:09:30;;;;;;;4.30;1.80;;;;;;100389.16;;;;107220;1274;65572;-27
2022/05/03 11:12:04;;;;;;;5.00;1.80;;;;;;100394.67;;;;107258;1274;65562;-31
2022/05/03 11:14:31;;;;;;;3.50;1.80;;;;;;100382.88;;;;107250;1274;65676;-32
2022/05/03 11:17:14;;;;;;;4.00;1.80;;;;;;100385.47;;;;107255;1273;65585;-29
2022/05/03 11:19:49;;;;;;;4.80;1.90;;;;;;100385.05;;;;107260;1274;67036;-27
2022/05/03 11:22:20;;;;;;;3.70;1.50;;;;;;100382.48;;;;107251;1274;65630;-27
2022/05/03 11:24:54;;;;;;;4.20;1.80;;;;;;100383.97;;;;107245;1274;65871;-24
2022/05/03 11:27:23;;;;;;;3.60;1.60;;;;;;100381.58;;;;107249;1274;65641;-27
2022/05/03 11:30:01;;;;;;;3.70;1.80;;;;;;100381.95;;;;107293;1273;65708;-29
2022/05/03 11:32:41;;;;;;;5.20;2.10;;;;;;100379.85;;;;107237;1272;67005;-36
2022/05/03 11:35:20;;;;;;;4.10;2.20;;;;;;100378.38;;;;107228;1274;65547;-35
2022/05/03 11:37:54;;;;;;;4.90;1.90;;;;;;100381.57;;;;107254;1274;65559;-27
2022/05/03 11:40:24;;;;;;;5.00;2.30;;;;;;100380.74;;;;107256;1274;65690;-31
2022/05/03 11:42:52;;;;;;;6.20;3.00;;;;;;100384.84;;;;107274;1273;65782;-33
2022/05/03 11:45:22;;;;;;;4.50;2.40;;;;;;100384.55;;;;107254;1274;66536;-34
2022/05/03 11:47:52;;;;;;;7.00;2.90;;;;;;100381.86;;;;107231;1274;65740;-28
2022/05/03 11:56:09;;;;;;;5.80;3.00;;;;;;100379.81;;;;107236;1274;64521;-29
2022/05/03 11:58:40;;;;;;;6.20;3.00;;;;;;100375.33;;;;107205;1274;68228;-31
2022/05/03 12:01:13;;;;;;;5.40;2.80;;;;;;100374.84;;;;107200;1274;65646;-31
2022/05/03 12:03:45;;;;;;;5.10;2.80;;;;;;100372.52;;;;107236;1274;65655;-29
2022/05/03 12:06:13;;;;;;;6.10;3.10;;;;;;100362.80;;;;107264;1274;65739;-27
2022/05/03 12:08:50;;;;;;;6.10;2.70;;;;;;100374.05;;;;107243;1274;65661;-33
2022/05/03 12:11:24;;;;;;;6.40;3.20;;;;;;100373.66;;;;107233;1274;66880;-32
2022/05/03 12:13:52;;;;;;;8.20;3.10;;;;;;100375.16;;;;107200;1274;65660;-30
2022/05/03 12:16:25;;;;;;;5.70;3.00;;;;;;100372.50;;;;107115;1274;213538;-30
2022/05/03 12:18:57;;;;;;;8.30;3.50;;;;;;100370.23;;;;107251;1274;65647;-31
2022/05/03 12:21:28;;;;;;;7.70;3.20;;;;;;100366.15;;;;107288;1274;65579;-30
2022/05/03 12:24:06;;;;;;;7.10;3.00;;;;;;100360.13;;;;107268;1274;68560;-30
2022/05/03 12:26:39;;;;;;;6.00;2.90;;;;;;100358.20;;;;107239;1274;65580;-30
2022/05/03 12:29:09;;;;;;;5.90;2.70;;;;;;100356.19;;;;107240;1274;65554;-30
2022/05/03 12:31:43;;;;;;;8.10;2.90;;;;;;100363.50;;;;107253;1274;65685;-27
2022/05/03 12:34:24;;;;;;;4.80;2.40;;;;;;100366.16;;;;107265;1274;65597;-32
2022/05/03 12:37:02;;;;;;;6.80;2.90;;;;;;100364.52;;;;107244;1274;68693;-29
2022/05/03 12:39:35;;;;;;;5.30;2.60;;;;;;100365.91;;;;107275;1274;65596;-29
2022/05/03 12:42:15;;;;;;;6.80;2.80;;;;;;100354.11;;;;107244;1274;65524;-31
2022/05/03 12:44:52;;;;;;;5.70;2.40;;;;;;100353.55;;;;107258;1274;65669;-33
2022/05/03 12:47:20;;;;;;;8.00;2.80;;;;;;100352.42;;;;107285;1274;65806;-32
2022/05/03 12:49:48;;;;;;;6.80;2.50;;;;;;100351.24;;;;107137;1277;65688;-33
2022/05/03 12:52:16;;;;;;;4.70;2.30;;;;;;100346.27;;;;107238;1274;65671;-32
2022/05/03 12:54:51;;;;;;;4.40;2.30;;;;;;100343.58;;;;107291;1274;65442;-32
2022/05/03 13:00:11;;;;;;;5.50;2.30;;;;;;100340.52;;;;107271;1272;65422;-34
2022/05/03 13:02:39;;;;;;;5.70;2.40;;;;;;100344.84;;;;107307;1274;66990;-28
2022/05/03 13:05:10;;;;;;;5.60;2.80;;;;;;100344.45;;;;107218;1274;65675;-29
2022/05/03 13:07:41;;;;;;;6.30;2.90;;;;;;100339.46;;;;107279;1274;65553;-31
2022/05/03 13:10:11;;;;;;;5.60;2.30;;;;;;100333.50;;;;107254;1274;65674;-32
2022/05/03 13:12:42;;;;;;;5.10;2.70;;;;;;100330.39;;;;107246;1274;65630;-28
2022/05/03 13:15:12;;;;;;;4.70;2.30;;;;;;100332.96;;;;107246;1274;65553;-29
2022/05/03 13:17:42;;;;;;;4.70;2.10;;;;;;100335.52;;;;107248;1274;66146;-28
2022/05/03 13:20:13;;;;;;;5.10;2.60;;;;;;100333.69;;;;107233;1273;65729;-29
2022/05/03 13:22:43;;;;;;;5.70;2.50;;;;;;100324.93;;;;107219;1274;65745;-32
2022/05/03 13:25:13;;;;;;;5.30;2.60;;;;;;100331.26;;;;107260;1274;65664;-32
2022/05/03 13:27:41;;;;;;;5.80;2.30;;;;;;100334.23;;;;107227;1274;68793;-29
2022/05/03 13:30:12;;;;;;;4.60;2.00;;;;;;100335.59;;;;107241;1274;65659;-29
2022/05/03 13:32:42;;;;;;;6.50;2.10;;;;;;100337.99;;;;107275;1274;65696;-29
2022/05/03 13:35:10;;;;;;;6.00;2.70;;;;;;100336.10;;;;107237;1274;65720;-29
2022/05/03 13:40:31;;;;;;;4.90;2.10;;;;;;100329.66;;;;107265;1274;66745;-27
2022/05/03 13:43:04;;;;;;;6.00;1.80;;;;;;100325.42;;;;107203;1274;65673;-39
2022/05/03 13:45:32;;;;;;;4.50;1.80;;;;;;100320.08;;;;107251;1274;65576;-35
2022/05/03 13:48:04;;;;;;;4.00;1.70;;;;;;100326.61;;;;107234;1274;65771;-29
2022/05/03 13:50:32;;;;;;;5.10;1.90;;;;;;100327.69;;;;107270;1274;65550;-28
2022/05/03 13:53:02;;;;;;;4.70;2.30;;;;;;100321.77;;;;107258;1274;66808;-28
2022/05/03 13:55:29;;;;;;;5.00;2.20;;;;;;100319.40;;;;107245;1274;65598;-29